LFMNLFTW

Guest
Details From LFMN - Nice/Cote d'Azur
To LFTW - Garons Navy
Flight Number -
Tags generated
Created
Modified
Stats Distance 122 nm / 225 km
Max Altitude 12,700 ft / 3,871 m
Waypoints 3
Social Downloads 1
Likes 0
Share VATSIM

Download

Looking for another format? Having issues loading an existing format? Contact us
Advertisement - Login to hide

Notes

Basic altitude profile: - Ascent Rate: 2500ft/min - Ascent Speed: 250kts - Cruise Altitude: 35000ft - Cruise Speed: 420kts - Descent Rate: 1500ft/min - Descent Speed: 250kts Options: - Use NATs: yes - Use PACOTS: yes - Use low airways: yes - Use high airways: yes

Route

LFMN MEDOK LFTW

ID Type Via Altitude Latitude Longitude Leg Dist Tot Dist Heading (true) Name
O LFMN APT - 0 ft / 0 m 43.65798˚ 7.21536˚ - 0 nm - Nice/Cote d'Azur
MEDOK FIX - 12,700 ft / 3,871 m 43.75111˚ 5.89194˚ 57 nm 57 nm 276° / 275° -
O LFTW APT - 0 ft / 0 m 43.75744˚ 4.41639˚ 64 nm 121 nm 271° / 270° Garons Navy

Altitude Profile

Advertisement - Login to hide

LFMN

Details ICAO LFMN (NCE)
Name Nice/Cote d'Azur
Region France
Timezone Unknown (UTC+0.0)
Stats Elevation 12 ft / 4 m (AMSL)
Location 43.657981° 7.215362°
Runways 2
Magnetic Variation 2.017° E

METAR

LFMN 171030Z 33008KT 9999 FEW030 10/M07 Q1019 NOSIG

Decode

TAF

TAF LFMN 170800Z 1709/1815 33010KT 9999 FEW030 BECMG 1711/1713 18010KT BECMG 1717/1719 33010KT BECMG 1810/1812 09010KT FEW040 BKN120

Decode

Departure Runways

ID Width Length Bearing (true) Bearing (mag) Surface Threshold Offset Overrun Length
04L 148 ft / 45 m 8,427 ft / 2,569 m 44.85° 42.83° Asphalt 0 ft / 0 m 131 ft / 40 m
04R 148 ft / 45 m 9,720 ft / 2,963 m 44.60° 42.58° Asphalt 0 ft / 0 m 427 ft / 130 m
22L 148 ft / 45 m 9,720 ft / 2,963 m 224.62° 222.60° Asphalt 0 ft / 0 m 525 ft / 160 m
22R 148 ft / 45 m 8,427 ft / 2,569 m 224.87° 222.85° Asphalt 0 ft / 0 m 492 ft / 150 m

LFTW

Details ICAO LFTW (FNI)
Name Garons Navy
Region France
Timezone Europe/Paris (UTC+1.0)
Stats Elevation 308 ft / 94 m (AMSL)
Location 43.757444° 4.416388°
Runways 1
Magnetic Variation 1.357° E

METAR

LFTW 171030Z AUTO 35009KT CAVOK 07/M01 Q1026 NOSIG

Decode

TAF

TAF LFTW 170800Z 1709/1809 34010KT CAVOK

Decode

Destination Runways

ID Width Length Bearing (true) Bearing (mag) Surface Threshold Offset Overrun Length
18 148 ft / 45 m 8,657 ft / 2,639 m 177.10° 175.74° Concrete 331 ft / 101 m 0 ft / 0 m
36 148 ft / 45 m 8,657 ft / 2,639 m 357.10° 355.74° Concrete 331 ft / 101 m 0 ft / 0 m

Approach Navaids

Runway Type Ident Frequency Range Bearing (true) Bearing (mag) Slope Elevation
18 Localiser NG 109.55 MHz 18 nm / 33 km 177.13° 175.77° - 306 ft / 93 m (AMSL)
18 Glidescope NG 109.55 MHz 10 nm / 19 km 177.10° 175.74° 3.00° 302 ft / 92 m (AMSL)
18 DME NG 109.55 MHz 18 nm / 33 km - - - 340 ft / 104 m (AMSL)
36 Localiser NG 109.09 MHz 18 nm / 33 km 356.75° 355.39° - 308 ft / 94 m (AMSL)
36 Glidescope NG 109.09 MHz 10 nm / 19 km 357.10° 355.74° 3.00° 308 ft / 94 m (AMSL)

Popular Alternatives